Terminal Aerodrome Forecast
Issued by NWS

Current Version | Previous Version | Text Only | Print | Product List | Glossary Off
Versions: 1 2 3 4 5 6 7 8 9 10 11 12 13 14 15 16 17 18 19

174
FTUS41 KRLX 180855 AAA
TAFCKB
TAF AMD
KCKB 180855Z 1809/1906 20004KT P6SM SKC
     FM181700 23009G15KT P6SM BKN150
     FM190200 23005KT P6SM OVC060=

USA.gov is the U.S. government's official web portal to all federal, state and local government web resources and services.